createdAt,value
2022-12-23T00:00:52.623Z,12.65
2022-12-23T00:03:53.986Z,12.57
2022-12-23T00:06:55.368Z,11.93
2022-12-23T00:09:56.662Z,13.07
2022-12-23T00:12:57.971Z,12.23
2022-12-23T00:15:59.289Z,12.23
2022-12-23T00:19:00.641Z,11.73
2022-12-23T00:22:01.961Z,12.88
2022-12-23T00:25:03.341Z,12.40
2022-12-23T00:28:04.643Z,13.13
2022-12-23T00:31:05.949Z,13.18
2022-12-23T00:34:07.251Z,11.23
2022-12-23T00:37:08.557Z,13.23
2022-12-23T00:40:09.859Z,11.75
2022-12-23T00:43:11.184Z,12.40
2022-12-23T00:46:12.555Z,11.32
2022-12-23T00:49:13.926Z,11.93
2022-12-23T00:52:15.235Z,11.68
2022-12-23T00:55:16.549Z,12.15
2022-12-23T00:58:17.871Z,11.95
2022-12-23T01:01:19.221Z,12.27
2022-12-23T01:04:20.563Z,12.10
2022-12-23T01:07:21.859Z,11.80
2022-12-23T01:10:23.146Z,12.05
2022-12-23T01:13:24.476Z,11.70
2022-12-23T01:16:25.834Z,11.57
2022-12-23T01:19:27.163Z,12.17
2022-12-23T01:22:28.442Z,11.77
2022-12-23T01:25:29.757Z,11.45
2022-12-23T01:28:31.059Z,11.27
2022-12-23T01:31:32.408Z,11.57
2022-12-23T01:34:37.173Z,10.83
2022-12-23T01:37:38.921Z,11.45
2022-12-23T01:40:40.221Z,11.35
2022-12-23T01:43:41.539Z,10.70
2022-12-23T01:46:42.863Z,10.63
2022-12-23T01:49:44.152Z,11.90
2022-12-23T01:52:45.468Z,11.20
2022-12-23T01:55:46.835Z,11.00
2022-12-23T01:58:48.164Z,10.80
2022-12-23T02:01:49.596Z,11.85
2022-12-23T02:04:50.999Z,9.93
2022-12-23T02:07:52.319Z,10.55
2022-12-23T02:10:53.623Z,11.15
2022-12-23T02:13:54.915Z,11.48
2022-12-23T02:16:56.263Z,10.57
2022-12-23T02:19:57.584Z,10.93
2022-12-23T02:22:58.876Z,11.00
2022-12-23T02:26:00.185Z,9.98
2022-12-23T02:29:01.494Z,10.60
2022-12-23T02:32:02.778Z,10.45
2022-12-23T02:35:04.109Z,10.33
2022-12-23T02:38:05.400Z,10.70
2022-12-23T02:41:06.702Z,10.52
2022-12-23T02:44:07.987Z,11.07
2022-12-23T02:47:09.299Z,10.73
2022-12-23T02:50:10.649Z,10.67
2022-12-23T02:53:11.947Z,10.18
2022-12-23T02:56:13.271Z,11.20
2022-12-23T02:59:14.576Z,10.32
2022-12-23T03:02:15.959Z,10.68
2022-12-23T03:05:17.391Z,11.10
2022-12-23T03:08:18.692Z,11.00
2022-12-23T03:11:20.024Z,11.05
2022-12-23T03:14:21.330Z,11.00
2022-12-23T03:17:22.636Z,10.70
2022-12-23T03:20:23.947Z,10.90
2022-12-23T03:23:25.395Z,11.43
2022-12-23T03:26:26.691Z,10.35
2022-12-23T03:29:27.987Z,10.82
2022-12-23T03:32:29.280Z,10.73
2022-12-23T03:35:30.568Z,11.53
2022-12-23T03:38:31.869Z,11.00
2022-12-23T03:41:33.155Z,11.30
2022-12-23T03:44:34.456Z,10.85
2022-12-23T03:47:35.758Z,10.75
2022-12-23T03:50:37.055Z,10.83
2022-12-23T03:53:38.351Z,10.93
2022-12-23T03:56:39.665Z,11.07
2022-12-23T03:59:40.963Z,11.23
2022-12-23T04:02:42.373Z,10.75
2022-12-23T04:05:43.767Z,9.80
2022-12-23T04:08:45.057Z,11.48
2022-12-23T04:11:46.375Z,11.23
2022-12-23T04:14:47.681Z,10.70
2022-12-23T04:17:48.963Z,10.65
2022-12-23T04:20:50.306Z,10.80
2022-12-23T04:23:51.625Z,11.07
2022-12-23T04:26:52.907Z,10.68
2022-12-23T04:29:54.228Z,10.30
2022-12-23T04:32:55.521Z,10.65
2022-12-23T04:35:56.829Z,10.03
2022-12-23T04:38:58.111Z,10.55
2022-12-23T04:41:59.415Z,9.93
2022-12-23T04:45:00.730Z,10.68
2022-12-23T04:48:02.038Z,9.77
2022-12-23T04:51:03.353Z,9.63
2022-12-23T04:54:04.654Z,9.65
2022-12-23T04:57:05.938Z,10.35
2022-12-23T05:00:07.254Z,10.65
2022-12-23T05:03:08.630Z,10.80
2022-12-23T05:06:10.086Z,10.00
2022-12-23T05:09:11.404Z,10.38
2022-12-23T05:12:12.696Z,10.15
2022-12-23T05:15:14.009Z,10.05
2022-12-23T05:18:15.329Z,10.35
2022-12-23T05:21:16.636Z,9.90
2022-12-23T05:24:17.958Z,10.35
2022-12-23T05:27:19.238Z,10.00
2022-12-23T05:30:20.573Z,9.90
2022-12-23T05:33:21.917Z,9.68
2022-12-23T05:36:23.272Z,9.90
2022-12-23T05:39:24.570Z,10.20
2022-12-23T05:42:25.885Z,9.55
2022-12-23T05:45:27.292Z,9.30
2022-12-23T05:48:28.648Z,10.00
2022-12-23T05:51:29.955Z,9.37
2022-12-23T05:54:31.258Z,9.75
2022-12-23T05:57:32.565Z,9.23
2022-12-23T06:00:33.895Z,9.88
2022-12-23T06:03:35.390Z,9.43
2022-12-23T06:06:36.842Z,9.77
2022-12-23T06:09:38.147Z,10.30
2022-12-23T06:12:39.444Z,9.77
2022-12-23T06:15:40.734Z,9.75
2022-12-23T06:18:42.046Z,10.30
2022-12-23T06:21:43.329Z,10.10
2022-12-23T06:24:44.635Z,9.88
2022-12-23T06:27:45.934Z,9.70
2022-12-23T06:30:47.253Z,9.80
2022-12-23T06:33:48.561Z,9.60
2022-12-23T06:36:49.891Z,10.23
2022-12-23T06:39:51.185Z,10.30
2022-12-23T06:42:52.499Z,9.68
2022-12-23T06:45:53.840Z,9.23
2022-12-23T06:48:55.154Z,9.52
2022-12-23T06:51:56.460Z,9.60
2022-12-23T06:54:57.785Z,9.63
2022-12-23T06:57:59.123Z,9.70
2022-12-23T07:01:00.510Z,9.38
2022-12-23T07:04:01.838Z,10.30
2022-12-23T07:07:03.155Z,10.17
2022-12-23T07:10:04.453Z,9.93
2022-12-23T07:13:05.762Z,9.55
2022-12-23T07:16:07.160Z,10.68
2022-12-23T07:19:08.515Z,9.45
2022-12-23T07:22:09.871Z,9.77
2022-12-23T07:25:11.183Z,9.55
2022-12-23T07:28:12.480Z,9.73
2022-12-23T07:31:13.857Z,10.48
2022-12-23T07:34:15.205Z,10.70
2022-12-23T07:37:16.501Z,9.87
2022-12-23T07:40:17.828Z,10.23
2022-12-23T07:43:19.137Z,9.90
2022-12-23T07:46:20.449Z,9.80
2022-12-23T07:49:21.840Z,10.82
2022-12-23T07:52:23.126Z,10.13
2022-12-23T07:55:24.424Z,10.65
2022-12-23T07:58:25.740Z,10.55
2022-12-23T08:01:27.151Z,10.18
2022-12-23T08:04:28.590Z,10.88
2022-12-23T08:07:30.945Z,12.07
2022-12-23T08:10:32.251Z,11.02
2022-12-23T08:13:33.559Z,10.60
2022-12-23T08:16:41.233Z,11.70
2022-12-23T08:19:44.537Z,11.02
2022-12-23T08:22:45.858Z,10.90
2022-12-23T08:25:47.166Z,9.95
2022-12-23T08:28:48.468Z,10.32
2022-12-23T08:31:49.798Z,11.25
2022-12-23T08:34:51.101Z,10.88
2022-12-23T08:37:52.401Z,10.53
2022-12-23T08:40:53.703Z,10.35
2022-12-23T08:43:55.008Z,10.55
2022-12-23T08:46:56.298Z,10.50
2022-12-23T08:49:57.622Z,9.73
2022-12-23T08:52:58.988Z,9.97
2022-12-23T08:56:00.312Z,9.68
2022-12-23T08:59:01.644Z,9.93
2022-12-23T09:02:03.090Z,9.90
2022-12-23T09:05:04.480Z,10.00
2022-12-23T09:08:05.792Z,10.00
2022-12-23T09:11:07.103Z,10.00
2022-12-23T09:14:08.417Z,9.85
2022-12-23T09:17:09.749Z,9.70
2022-12-23T09:20:11.069Z,10.73
2022-12-23T09:23:12.375Z,9.37
2022-12-23T09:26:13.690Z,9.20
2022-12-23T09:29:14.998Z,10.15
2022-12-23T09:32:16.306Z,9.50
2022-12-23T09:35:17.644Z,10.23
2022-12-23T09:38:18.930Z,9.53
2022-12-23T09:41:20.246Z,8.40
2022-12-23T09:44:21.545Z,9.48
2022-12-23T09:47:22.849Z,9.00
2022-12-23T09:50:24.135Z,10.30
2022-12-23T09:53:25.442Z,9.30
2022-12-23T09:56:26.860Z,9.45
2022-12-23T09:59:28.171Z,9.52
2022-12-23T10:02:29.622Z,9.45
2022-12-23T10:05:31.077Z,8.80
2022-12-23T10:08:32.378Z,9.10
2022-12-23T10:11:33.680Z,9.43
2022-12-23T10:14:34.997Z,8.63
2022-12-23T10:17:36.303Z,9.60
2022-12-23T10:20:37.609Z,8.88
2022-12-23T10:23:38.910Z,8.23
2022-12-23T10:26:40.211Z,9.32
2022-12-23T10:29:41.536Z,8.65
2022-12-23T10:32:42.900Z,9.02
2022-12-23T10:35:44.226Z,8.57
2022-12-23T10:38:45.588Z,8.20
2022-12-23T10:41:47.008Z,8.13
2022-12-23T10:44:49.224Z,8.20
2022-12-23T10:47:51.767Z,9.05
2022-12-23T10:50:53.792Z,8.52
2022-12-23T10:53:55.118Z,7.90
2022-12-23T10:56:56.432Z,8.70
2022-12-23T10:59:57.732Z,7.78
2022-12-23T11:02:59.190Z,8.27
2022-12-23T11:06:00.608Z,8.02
2022-12-23T11:09:01.920Z,8.43
2022-12-23T11:12:03.220Z,7.80
2022-12-23T11:15:04.609Z,7.97
2022-12-23T11:18:05.933Z,7.68
2022-12-23T11:21:07.244Z,7.78
2022-12-23T11:24:08.548Z,8.03
2022-12-23T11:27:09.850Z,7.88
2022-12-23T11:30:11.151Z,6.85
2022-12-23T11:33:12.466Z,7.72
2022-12-23T11:36:13.780Z,7.10
2022-12-23T11:39:15.082Z,7.70
2022-12-23T11:42:16.407Z,7.82
2022-12-23T11:45:17.723Z,7.93
2022-12-23T11:48:19.019Z,7.55
2022-12-23T11:51:20.318Z,7.47
2022-12-23T11:54:21.678Z,7.50
2022-12-23T11:57:22.974Z,7.40
2022-12-23T12:00:24.308Z,7.25
2022-12-23T12:03:25.619Z,7.70
2022-12-23T12:06:27.009Z,6.40
2022-12-23T12:09:28.316Z,7.67
2022-12-23T12:12:29.642Z,7.10
2022-12-23T12:15:30.951Z,6.88
2022-12-23T12:18:32.256Z,7.55
2022-12-23T12:21:33.553Z,7.20
2022-12-23T12:24:34.859Z,7.33
2022-12-23T12:27:36.144Z,7.15
2022-12-23T12:30:38.170Z,6.97
2022-12-23T12:33:39.483Z,6.97
2022-12-23T12:36:40.939Z,7.60
2022-12-23T12:39:42.265Z,6.57
2022-12-23T12:42:43.626Z,6.90
2022-12-23T12:45:44.986Z,6.60
2022-12-23T12:48:46.315Z,6.75
2022-12-23T12:51:47.616Z,6.45
2022-12-23T12:54:49.359Z,6.93
2022-12-23T12:57:50.664Z,6.45
2022-12-23T13:00:52.003Z,6.68
2022-12-23T13:03:53.846Z,6.28
2022-12-23T13:06:55.168Z,6.53
2022-12-23T13:09:56.501Z,6.60
2022-12-23T13:12:57.885Z,6.60
2022-12-23T13:15:59.176Z,6.45
2022-12-23T13:19:00.480Z,6.88
2022-12-23T13:22:01.799Z,6.53
2022-12-23T13:25:03.119Z,6.47
2022-12-23T13:28:04.435Z,6.22
2022-12-23T13:31:05.751Z,6.70
2022-12-23T13:34:07.095Z,6.30
2022-12-23T13:37:08.397Z,5.97
2022-12-23T13:40:09.704Z,6.93
2022-12-23T13:43:11.014Z,6.18
2022-12-23T13:46:12.396Z,5.55
2022-12-23T13:49:13.725Z,6.50
2022-12-23T13:52:15.038Z,6.25
2022-12-23T13:55:16.340Z,5.27
2022-12-23T13:58:17.659Z,6.13
2022-12-23T14:01:18.982Z,5.72
2022-12-23T14:04:20.321Z,5.85
2022-12-23T14:07:21.620Z,6.20
2022-12-23T14:10:22.946Z,6.70
2022-12-23T14:13:24.240Z,5.53
2022-12-23T14:16:25.632Z,5.47
2022-12-23T14:19:27.043Z,5.50
2022-12-23T14:22:28.338Z,5.85
2022-12-23T14:25:29.644Z,5.63
2022-12-23T14:28:30.955Z,5.75
2022-12-23T14:31:32.346Z,6.30
2022-12-23T14:34:33.699Z,5.70
2022-12-23T14:37:35.026Z,5.93
2022-12-23T14:40:36.332Z,5.90
2022-12-23T14:43:38.339Z,5.53
2022-12-23T14:46:39.708Z,5.47
2022-12-23T14:49:41.463Z,5.50
2022-12-23T14:52:45.253Z,5.30
2022-12-23T14:55:46.710Z,5.60
2022-12-23T14:58:48.044Z,5.45
2022-12-23T15:01:49.652Z,5.32
2022-12-23T15:04:51.007Z,5.72
2022-12-23T15:07:52.301Z,7.00
2022-12-23T15:10:53.594Z,5.70
2022-12-23T15:13:54.903Z,6.40
2022-12-23T15:16:56.261Z,6.53
2022-12-23T15:19:57.647Z,6.65
2022-12-23T15:22:58.961Z,6.50
2022-12-23T15:26:00.369Z,6.47
2022-12-23T15:29:01.693Z,6.38
2022-12-23T15:32:03.027Z,7.20
2022-12-23T15:35:04.303Z,7.03
2022-12-23T15:38:05.653Z,7.22
2022-12-23T15:41:06.957Z,7.50
2022-12-23T15:44:08.281Z,6.63
2022-12-23T15:47:09.591Z,7.65
2022-12-23T15:50:11.042Z,7.13
2022-12-23T15:53:12.359Z,7.47
2022-12-23T15:56:13.664Z,6.57
2022-12-23T15:59:14.977Z,6.88
2022-12-23T16:02:49.657Z,10.20
2022-12-23T16:05:37.558Z,10.57
2022-12-23T16:08:38.871Z,9.20
2022-12-23T16:11:40.171Z,9.43
2022-12-23T16:14:41.504Z,9.80
2022-12-23T16:17:42.903Z,9.82
2022-12-23T16:20:44.232Z,9.40
2022-12-23T16:23:45.531Z,10.40
2022-12-23T16:26:46.855Z,9.33
2022-12-23T16:29:48.162Z,10.38
2022-12-23T16:32:49.569Z,10.40
2022-12-23T16:35:50.867Z,10.02
2022-12-23T16:38:52.177Z,9.98
2022-12-23T16:41:53.587Z,10.10
2022-12-23T16:44:54.902Z,10.38
2022-12-23T16:47:56.230Z,11.32
2022-12-23T16:50:57.556Z,10.60
2022-12-23T16:53:58.850Z,10.40
2022-12-23T16:57:00.152Z,10.53
2022-12-23T17:00:01.464Z,11.07
2022-12-23T17:03:02.840Z,10.75
2022-12-23T17:06:04.167Z,10.15
2022-12-23T17:09:05.470Z,11.18
2022-12-23T17:12:06.755Z,10.23
2022-12-23T17:15:08.062Z,10.50
2022-12-23T17:18:09.373Z,10.50
2022-12-23T17:21:10.692Z,10.30
2022-12-23T17:24:12.006Z,9.88
2022-12-23T17:27:13.322Z,10.23
2022-12-23T17:30:14.630Z,11.15
2022-12-23T17:33:15.933Z,10.25
2022-12-23T17:36:17.330Z,11.10
2022-12-23T17:39:18.701Z,10.70
2022-12-23T17:42:25.294Z,10.37
2022-12-23T17:45:27.438Z,10.30
2022-12-23T17:48:31.932Z,9.82
2022-12-23T17:51:33.441Z,10.13
2022-12-23T17:54:34.764Z,10.80
2022-12-23T17:57:36.063Z,10.83
2022-12-23T18:00:38.440Z,9.88
2022-12-23T18:03:39.799Z,10.63
2022-12-23T18:06:41.114Z,9.43
2022-12-23T18:09:42.446Z,10.23
2022-12-23T18:12:43.746Z,10.60
2022-12-23T18:15:45.075Z,10.00
2022-12-23T18:18:47.179Z,9.90
2022-12-23T18:21:48.643Z,9.88
2022-12-23T18:24:53.827Z,9.52
2022-12-23T18:27:58.404Z,10.20
2022-12-23T18:30:59.760Z,9.57
2022-12-23T18:34:01.079Z,9.27
2022-12-23T18:37:02.448Z,9.75
2022-12-23T18:40:03.725Z,9.93
2022-12-23T18:43:05.018Z,9.17
2022-12-23T18:46:06.358Z,9.35
2022-12-23T18:49:07.706Z,9.52
2022-12-23T18:52:08.996Z,10.05
2022-12-23T18:55:10.314Z,9.85
2022-12-23T18:58:11.605Z,10.07
2022-12-23T19:01:12.996Z,9.80
2022-12-23T19:04:14.335Z,10.02
2022-12-23T19:07:15.621Z,9.88
2022-12-23T19:10:16.940Z,9.77
2022-12-23T19:13:18.232Z,10.10
2022-12-23T19:16:19.613Z,9.93
2022-12-23T19:19:21.019Z,9.75
2022-12-23T19:22:22.374Z,10.15
2022-12-23T19:25:23.736Z,10.00
2022-12-23T19:28:25.083Z,9.60
2022-12-23T19:31:26.414Z,10.00
2022-12-23T19:34:27.767Z,10.23
2022-12-23T19:37:29.080Z,10.40
2022-12-23T19:40:30.477Z,10.50
2022-12-23T19:43:31.792Z,9.70
2022-12-23T19:46:33.168Z,9.70
2022-12-23T19:49:34.479Z,10.13
2022-12-23T19:52:35.782Z,9.82
2022-12-23T19:55:37.087Z,10.20
2022-12-23T19:58:38.431Z,10.23
2022-12-23T20:01:39.847Z,10.02
2022-12-23T20:04:41.216Z,9.93
2022-12-23T20:07:43.219Z,10.90
2022-12-23T20:10:44.893Z,10.23
2022-12-23T20:13:46.501Z,10.37
2022-12-23T20:16:47.883Z,10.93
2022-12-23T20:19:49.241Z,10.18
2022-12-23T20:22:50.546Z,10.95
2022-12-23T20:25:51.874Z,11.05
2022-12-23T20:28:53.199Z,10.50
2022-12-23T20:31:54.507Z,11.45
2022-12-23T20:34:55.996Z,11.15
2022-12-23T20:37:57.337Z,10.98
2022-12-23T20:40:58.677Z,10.50
2022-12-23T20:47:21.402Z,10.68
2022-12-23T20:50:22.713Z,10.35
2022-12-23T20:53:24.138Z,10.15
2022-12-23T20:56:25.526Z,10.45
2022-12-23T20:59:26.876Z,10.77
2022-12-23T21:02:28.326Z,10.32
2022-12-23T21:05:29.657Z,10.65
2022-12-23T21:08:30.984Z,9.90
2022-12-23T21:11:32.296Z,10.35
2022-12-23T21:14:33.664Z,10.17
2022-12-23T21:17:34.958Z,10.25
2022-12-23T21:20:36.279Z,9.55
2022-12-23T21:23:37.585Z,10.55
2022-12-23T21:26:38.918Z,9.95
2022-12-23T21:29:40.253Z,9.87
2022-12-23T21:32:41.602Z,10.00
2022-12-23T21:35:42.906Z,10.30
2022-12-23T21:38:44.206Z,10.27
2022-12-23T21:41:45.516Z,10.07
2022-12-23T21:44:46.823Z,9.37
2022-12-23T21:47:48.155Z,9.85
2022-12-23T21:50:49.442Z,9.25
2022-12-23T21:53:50.760Z,9.73
2022-12-23T21:56:52.074Z,10.10
2022-12-23T21:59:53.373Z,9.13
2022-12-23T22:02:54.694Z,9.63
2022-12-23T22:05:56.010Z,8.73
2022-12-23T22:08:57.333Z,9.48
2022-12-23T22:11:58.664Z,8.93
2022-12-23T22:14:59.977Z,9.07
2022-12-23T22:18:01.293Z,9.00
2022-12-23T22:21:02.590Z,9.25
2022-12-23T22:24:03.918Z,8.88
2022-12-23T22:27:05.256Z,9.30
2022-12-23T22:30:06.577Z,8.43
2022-12-23T22:33:07.931Z,8.30
2022-12-23T22:36:09.223Z,8.55
2022-12-23T22:39:14.202Z,8.32
2022-12-23T22:42:19.006Z,8.05
2022-12-23T22:45:20.321Z,8.17
2022-12-23T22:48:21.695Z,8.38
2022-12-23T22:51:23.005Z,8.63
2022-12-23T22:54:24.296Z,7.75
2022-12-23T22:57:25.607Z,7.60
2022-12-23T23:00:26.930Z,8.03
2022-12-23T23:03:28.223Z,8.02
2022-12-23T23:06:29.561Z,8.18
2022-12-23T23:09:30.912Z,7.85
2022-12-23T23:12:32.236Z,7.88
2022-12-23T23:15:33.560Z,7.20
2022-12-23T23:18:34.872Z,7.25
2022-12-23T23:21:36.202Z,7.18
2022-12-23T23:24:37.523Z,7.80
2022-12-23T23:27:38.862Z,7.18
2022-12-23T23:30:40.164Z,7.47
2022-12-23T23:33:41.476Z,7.35
2022-12-23T23:36:42.928Z,6.60
2022-12-23T23:39:44.286Z,6.72
2022-12-23T23:42:45.637Z,7.05
2022-12-23T23:45:47.001Z,7.03
2022-12-23T23:48:48.319Z,7.82
2022-12-23T23:51:49.643Z,6.63
2022-12-23T23:54:50.994Z,6.53
2022-12-23T23:57:52.296Z,7.05
